Station info - map view · info · telemetry · weather · raw · status · beacons · messages · bulletins · browse · moving · my account
Callsign, ship name or locator: Clear       
It is possible to search using wildcards (*?) after a prefix. Example: OH*
APRS station KO4HOL-9 - show graphs
Map loading...
Mic-E message: In service
Location: 35°03.70' N 81°59.90' W - locator EM95AB04ET - show map - static map
1.4 miles Northwest bearing 318° from Boiling Springs, Spartanburg County, South Carolina, United States [?]
5.3 miles East bearing 79° from Inman, Spartanburg County, South Carolina, United States
48.6 miles Southeast bearing 140° from Asheville, Buncombe County, North Carolina, United States
66.2 miles West bearing 260° from Charlotte, Mecklenburg County, North Carolina, United States
Last position: 2020-11-01 17:07:28 EST (23d 10h23m ago)
2020-11-01 17:07:28 EST local time at Boiling Springs, United States [?]
Altitude: 886 ft
Course: 21°
Speed: 0 MPH
Device: Yaesu: FTM-300D (rig)
Last path: KO4HOL-9>S5PS7P via WIDE1-1,qAR,GSPSC (good)
Positions stored: 525
Stations near current position of KO4HOL-9 - show more
callsign distance last heard - EST      callsign distance last heard - EST
W4LEP E2.2 miles 29°2020-11-24 10:36:57 W4LEP-E2.2 miles 29°2020-11-24 10:37:07
KO4CEF-13.1 miles 310°2020-11-25 03:19:19 KO4CEF-93.1 miles 309°2020-11-24 18:57:34
KO4CEF-73.1 miles 309°2020-11-09 22:45:27 W4CWF-73.3 miles 228°2020-10-29 12:17:53
K4YYM3.9 miles 134°2020-11-25 03:27:31 WD4SMD-N4.3 miles 181°2020-11-25 03:14:49
K4XP7.5 miles 185°2020-11-25 03:30:39 EW27248.7 miles 135°2020-11-25 03:28:23
K4AFX-98.8 miles 149°2020-11-23 15:40:36 K4ECM-79.6 miles 142°2020-11-15 13:16:39
N4AWL-1010.1 miles 167°2020-11-25 03:26:48 W4PCT10.5 miles 206°2020-11-25 03:12:02
KN4GZT-411.0 miles 166°2020-11-12 07:56:28 KR4NO-111.5 miles 83°2020-11-25 03:26:45
KR4NO-911.5 miles 84°2020-11-22 13:23:44 KR4NO-711.5 miles 83°2020-11-14 15:37:43
K4AFX-1511.9 miles 199°2020-11-25 03:26:16 DW940812.2 miles 334°2020-11-25 03:29:58
Stations which heard KO4HOL-9 directly on radio –
callsign pkts first heard - EST last heard longest (tx => rx) longest at - EST
N9UMJ-10 3 2020-11-01 09:47:09 2020-11-01 10:02:15 EM79BA > EM68QR 45.4 miles 245° 2020-11-01 09:47:09
WA9RES 1 2020-11-01 07:37:28 2020-11-01 07:37:28 EN60CD > EN50UF 27.4 miles 284° 2020-11-01 07:37:28
N9AMN-2 1 2020-11-01 08:55:55 2020-11-01 08:55:55 EM69UR > EM69WR 6.2 miles 91° 2020-11-01 08:55:55
N9OQW 1 2020-11-01 08:07:38 2020-11-01 08:07:38 EN60KC > EM69AV 45.2 miles 249° 2020-11-01 08:07:38
KE4OTZ-3 6 2020-11-01 13:33:44 2020-11-01 14:28:10 EM76VM > EM85BP 61.1 miles 164° 2020-11-01 13:33:44
W9ICE-10 3 2020-11-01 08:43:53 2020-11-01 09:07:58 EM69WP > EM69VV 16.7 miles 339° 2020-11-01 09:07:58
N9LQP-2 4 2020-11-01 09:20:01 2020-11-01 09:38:07 EM69XL > EM79FF 28.1 miles 126° 2020-11-01 09:20:01
KF4REN-1 2 2020-11-01 12:09:15 2020-11-01 12:12:16 EM77UU > EM77VS 9.8 miles 138° 2020-11-01 12:09:15
W9YB-1 1 2020-11-01 08:19:42 2020-11-01 08:19:42 EN60NB > EN60NK 24.7 miles 353° 2020-11-01 08:19:42
KC4MJN-2 2 2020-11-01 13:36:44 2020-11-01 13:42:46 EM76VL > EM76MK 38.6 miles 265° 2020-11-01 13:36:44
KC8RFE-1 1 2020-11-01 07:10:19 2020-11-01 07:10:19 EN50TE > EN50UC 6.0 miles 140° 2020-11-01 07:10:19
KY9J-10 2 2020-11-01 10:23:22 2020-11-01 10:29:24 EM78CH > EM78DK 10.0 miles 21° 2020-11-01 10:29:24
KT4LH-10 3 2020-11-01 11:54:10 2020-11-01 12:00:12 EM78TA > EM78SB 4.5 miles 326° 2020-11-01 12:00:12
WB9EOC-10 4 2020-11-01 08:25:43 2020-11-01 08:34:46 EN60PA > EM69NP 26.9 miles 196° 2020-11-01 08:25:43
KK4ZDZ-10 1 2020-11-01 10:48:07 2020-11-01 10:48:07 EM78DG > EM78EC 13.5 miles 157° 2020-11-01 10:48:07
KY4KY-3 4 2020-11-01 10:42:17 2020-11-01 11:13:04 EM78CI > EM78DB 20.7 miles 176° 2020-11-01 10:42:17
NA9VY-1 1 2020-11-01 09:53:11 2020-11-01 09:53:11 EM78BW > EM68WX 15.6 miles 285° 2020-11-01 09:53:11
KF4ERV-10 1 2020-11-01 10:38:28 2020-11-01 10:38:28 EM78DF > EM78DF 1.4 miles 194° 2020-11-01 10:38:28
K4CDN-5 1 2020-11-01 16:44:10 2020-11-01 16:44:10 EM85VG > EM94BT 35.7 miles 145° 2020-11-01 16:44:10
KC8RFE-3 9 2020-11-01 06:36:16 2020-11-01 07:01:16 EN50OI > EN50PA 21.7 miles 167° 2020-11-01 06:49:08
NN4BC-15 5 2020-11-01 16:04:46 2020-11-01 16:23:04 EM85RK > EM85QO 13.9 miles 330° 2020-11-01 16:23:04
KC9URP-10 1 2020-11-01 09:13:59 2020-11-01 09:13:59 EM69XN > EM79BT 19.1 miles 35° 2020-11-01 09:13:59
N4AWL-10 1 2020-11-01 17:01:27 2020-11-01 17:01:27 EM85XC > EM94AW 12.7 miles 159° 2020-11-01 17:01:27
AE4VP-2 1 2020-11-01 13:48:48 2020-11-01 13:48:48 EM76VH > EM86GC 44.0 miles 110° 2020-11-01 13:48:48
CHMBRS 1 2020-11-01 15:58:40 2020-11-01 15:58:40 EM85NN > EM85NN 2.0 miles 310° 2020-11-01 15:58:40
AE9R-10 4 2020-11-01 08:37:47 2020-11-01 08:55:53 EM69UR > EM69SS 9.4 miles 291° 2020-11-01 08:55:53
NE9RD-10 2 2020-11-01 07:43:30 2020-11-01 07:49:32 EN60FC > EN60ED 5.2 miles 298° 2020-11-01 07:49:32
NX9D-10 1 2020-11-01 10:32:25 2020-11-01 10:32:25 EM78DG > EM78CH 2.5 miles 325° 2020-11-01 10:32:25
W9IPA-11 8 2020-11-01 07:04:17 2020-11-01 07:31:26 EN50RF > EN50VC 16.8 miles 116° 2020-11-01 07:04:17
K4KJQ 1 2020-11-01 11:51:10 2020-11-01 11:51:10 EM78RC > EM78SC 3.8 miles 131° 2020-11-01 11:51:10
GSPSC 2 2020-11-01 16:58:30 2020-11-01 17:07:28 EM95AB > EM84TW 24.8 miles 251° 2020-11-01 17:07:28

Only position packets which were originated by the station are shown here. The range statistics show some extra long hops, because some digipeaters do not correctly add themselves to the digipeater path. Please check the raw packets.
About this site
This page shows real-time information collected from the Automatic Position Reporting System Internet network (APRS-IS). APRS is used by amateur (ham) radio operators to transmit real-time position information, weather data, telemetry and messages over the radio. A vehicle equipped with a GPS receiver, a VHF transmitter or HF transceiver and a small computer device called a tracker transmits it's location, speed and course in a small data packet, which is then received by a nearby iGate receiving site which forwards the packet on the Internet. Systems connected to the Internet can send information on the APRS-IS without a radio transmitter, or collect and display information transmitted anywhere in the world.
User guide · FAQ · Blog · Discussion group · Linking to aprs.fi · AIS sites · Service status · Database statistics · Advertising on aprs.fi · Technical details · API · Change log · Planned changes · Credits and thanks · Terms Of Service · iPhone/iPad APRS